Time;durP1;ratioP1;P1;durP2;ratioP2;P2;SDS_P1;SDS_P2;PMS_P1;PMS_P2;Temp;Humidity;BMP_temperature;BMP_pressure;BME280_temperature;BME280_humidity;BME280_pressure;Samples;Min_cycle;Max_cycle;Signal;HPM_P1;HPM_P2
2022/08/02 00:02:13;;;;;;;3.40;3.30;;;;;;;;;;5012379;28;20903;-69
2022/08/02 00:04:39;;;;;;;3.73;3.10;;;;;;;;;;5013104;28;20465;-69
2022/08/02 00:07:05;;;;;;;3.30;2.77;;;;;;;;;;5013323;28;20410;-69
2022/08/02 00:09:31;;;;;;;3.27;3.07;;;;;;;;;;5008980;28;20479;-69
2022/08/02 00:11:57;;;;;;;3.13;3.03;;;;;;;;;;4976173;28;20474;-67
2022/08/02 00:14:23;;;;;;;3.50;3.20;;;;;;;;;;4993424;28;20425;-69
2022/08/02 00:16:49;;;;;;;3.63;3.53;;;;;;;;;;4993392;28;20443;-69
2022/08/02 00:19:15;;;;;;;3.70;3.33;;;;;;;;;;4993719;28;20419;-68
2022/08/02 00:21:41;;;;;;;3.17;3.00;;;;;;;;;;4993705;28;20413;-69
2022/08/02 00:24:07;;;;;;;3.10;3.00;;;;;;;;;;4993452;28;20435;-69
2022/08/02 00:26:34;;;;;;;3.87;3.50;;;;;;;;;;4993505;28;20458;-70
2022/08/02 00:29:00;;;;;;;2.93;2.80;;;;;;;;;;4993366;28;20448;-69
2022/08/02 00:31:25;;;;;;;3.97;2.73;;;;;;;;;;4993533;28;20910;-68
2022/08/02 00:33:51;;;;;;;3.30;3.10;;;;;;;;;;4993650;28;20408;-69
2022/08/02 00:36:17;;;;;;;3.10;2.90;;;;;;;;;;4993733;28;20415;-69
2022/08/02 00:38:45;;;;;;;3.80;3.50;;;;;;;;;;4993261;28;20875;-68
2022/08/02 00:41:15;;;;;;;3.67;2.60;;;;;;;;;;4993415;28;20490;-68
2022/08/02 00:43:41;;;;;;;3.43;2.60;;;;;;;;;;4993433;28;20415;-66
2022/08/02 00:46:07;;;;;;;4.30;2.63;;;;;;;;;;4993186;28;20907;-67
2022/08/02 00:48:33;;;;;;;2.97;2.47;;;;;;;;;;4993379;28;20437;-67
2022/08/02 00:50:59;;;;;;;2.83;2.53;;;;;;;;;;4993519;28;20409;-67
2022/08/02 00:53:25;;;;;;;3.00;2.33;;;;;;;;;;4975896;28;20507;-67
2022/08/02 00:55:52;;;;;;;2.50;2.37;;;;;;;;;;4993198;28;20847;-67
2022/08/02 00:58:18;;;;;;;2.70;2.50;;;;;;;;;;4993439;28;20428;-67
2022/08/02 01:00:44;;;;;;;2.63;2.53;;;;;;;;;;5007545;28;20969;-67
2022/08/02 01:03:10;;;;;;;3.00;2.50;;;;;;;;;;4995070;28;20431;-67
2022/08/02 01:05:36;;;;;;;2.10;2.10;;;;;;;;;;5012382;28;20558;-67
2022/08/02 01:08:02;;;;;;;2.80;2.60;;;;;;;;;;5012839;28;20412;-66
2022/08/02 01:10:28;;;;;;;3.10;1.90;;;;;;;;;;5012698;28;20421;-66
2022/08/02 01:12:54;;;;;;;2.10;2.03;;;;;;;;;;4996118;28;20415;-66
2022/08/02 01:15:21;;;;;;;5.37;2.80;;;;;;;;;;5016351;28;20906;-66
2022/08/02 01:17:50;;;;;;;2.80;2.80;;;;;;;;;;5015789;28;20890;-66
2022/08/02 01:20:34;;;;;;;4.70;2.70;;;;;;;;;;5016098;28;20454;-67
2022/08/02 01:23:19;;;;;;;2.97;2.70;;;;;;;;;;5016246;28;20411;-67
2022/08/02 01:26:00;;;;;;;2.73;2.63;;;;;;;;;;5016006;28;20870;-66
2022/08/02 01:28:32;;;;;;;3.03;2.80;;;;;;;;;;5016028;28;20881;-67
2022/08/02 01:31:02;;;;;;;2.50;2.40;;;;;;;;;;5015995;28;20822;-68
2022/08/02 01:33:33;;;;;;;3.50;2.60;;;;;;;;;;4998567;28;20427;-68
2022/08/02 01:35:59;;;;;;;2.80;2.77;;;;;;;;;;5015934;28;20470;-68
2022/08/02 01:38:39;;;;;;;3.73;2.90;;;;;;;;;;5015642;28;20882;-68
2022/08/02 01:41:07;;;;;;;3.80;2.70;;;;;;;;;;5015815;28;20501;-68
2022/08/02 01:43:34;;;;;;;2.50;2.40;;;;;;;;;;5015740;28;20410;-68
2022/08/02 01:46:00;;;;;;;2.40;2.30;;;;;;;;;;5011454;28;20483;-69
2022/08/02 01:48:28;;;;;;;3.37;3.03;;;;;;;;;;4978594;28;20427;-68
2022/08/02 01:50:54;;;;;;;2.80;2.80;;;;;;;;;;4996168;28;20497;-69
2022/08/02 01:53:21;;;;;;;4.77;2.93;;;;;;;;;;4995636;28;20401;-69
2022/08/02 01:55:49;;;;;;;3.00;2.90;;;;;;;;;;4995880;28;20420;-68
2022/08/02 01:58:17;;;;;;;3.03;2.90;;;;;;;;;;4995999;28;20400;-69
2022/08/02 02:00:44;;;;;;;2.80;2.70;;;;;;;;;;4995740;28;20599;-68
2022/08/02 02:03:14;;;;;;;5.13;3.47;;;;;;;;;;4996011;28;20435;-68
2022/08/02 02:05:41;;;;;;;5.90;2.83;;;;;;;;;;4995690;28;20945;-68
2022/08/02 02:08:09;;;;;;;4.20;3.10;;;;;;;;;;4995736;28;20407;-69
2022/08/02 02:10:37;;;;;;;2.47;2.27;;;;;;;;;;4995557;28;20391;-69
2022/08/02 02:13:04;;;;;;;3.27;2.47;;;;;;;;;;4996006;28;20509;-69
2022/08/02 02:15:31;;;;;;;6.47;2.80;;;;;;;;;;4995393;28;20416;-69
2022/08/02 02:17:58;;;;;;;3.00;2.80;;;;;;;;;;4978294;28;20461;-69
2022/08/02 02:20:24;;;;;;;3.23;2.40;;;;;;;;;;4995481;28;20431;-68
2022/08/02 02:22:50;;;;;;;3.27;3.10;;;;;;;;;;4995473;28;20506;-68
2022/08/02 02:25:18;;;;;;;3.40;3.03;;;;;;;;;;4994192;28;20466;-68
2022/08/02 02:28:04;;;;;;;3.30;3.00;;;;;;;;;;4994992;28;20412;-68
2022/08/02 02:30:31;;;;;;;6.13;2.47;;;;;;;;;;4995124;28;20510;-67
2022/08/02 02:32:59;;;;;;;2.47;2.37;;;;;;;;;;4995417;28;20454;-68
2022/08/02 02:35:28;;;;;;;2.60;2.60;;;;;;;;;;4995162;28;20416;-68
2022/08/02 02:37:55;;;;;;;4.77;2.73;;;;;;;;;;4994991;28;20408;-67
2022/08/02 02:40:22;;;;;;;3.27;2.63;;;;;;;;;;4995108;28;20410;-68
2022/08/02 02:42:49;;;;;;;2.60;2.40;;;;;;;;;;4994991;28;20404;-68
2022/08/02 02:45:17;;;;;;;2.63;2.53;;;;;;;;;;4994994;28;20470;-68
2022/08/02 02:47:43;;;;;;;2.97;2.87;;;;;;;;;;4994921;28;20427;-68
2022/08/02 02:50:10;;;;;;;2.23;2.13;;;;;;;;;;4994721;28;20415;-68
2022/08/02 02:52:37;;;;;;;2.87;2.67;;;;;;;;;;4994768;28;20877;-68
2022/08/02 02:55:04;;;;;;;3.43;2.73;;;;;;;;;;4994760;28;20416;-68
2022/08/02 02:57:30;;;;;;;3.20;2.93;;;;;;;;;;4994854;28;20834;-69
2022/08/02 02:59:57;;;;;;;3.70;2.93;;;;;;;;;;4976933;28;20876;-68
2022/08/02 03:02:23;;;;;;;4.30;2.70;;;;;;;;;;4993864;28;20436;-68
2022/08/02 03:04:49;;;;;;;2.53;2.50;;;;;;;;;;4994740;28;20475;-69
2022/08/02 03:07:16;;;;;;;2.60;2.50;;;;;;;;;;4994477;28;20411;-68
2022/08/02 03:09:42;;;;;;;4.03;2.93;;;;;;;;;;4994574;28;20422;-68
2022/08/02 03:12:08;;;;;;;2.47;2.27;;;;;;;;;;4994766;28;20523;-69
2022/08/02 03:14:34;;;;;;;2.60;2.40;;;;;;;;;;4994433;28;20427;-68
2022/08/02 03:17:00;;;;;;;2.50;2.40;;;;;;;;;;4994484;28;20498;-69
2022/08/02 03:19:26;;;;;;;2.83;2.73;;;;;;;;;;4994041;28;20571;-68
2022/08/02 03:21:52;;;;;;;3.10;3.00;;;;;;;;;;4994293;28;20422;-68
2022/08/02 03:24:19;;;;;;;2.63;2.43;;;;;;;;;;4994211;28;20419;-68
2022/08/02 03:26:45;;;;;;;3.90;2.63;;;;;;;;;;4994297;28;20506;-68
2022/08/02 03:29:11;;;;;;;2.93;2.73;;;;;;;;;;4994411;28;20421;-68
2022/08/02 03:31:39;;;;;;;2.73;2.63;;;;;;;;;;4993962;28;20414;-68
2022/08/02 03:34:05;;;;;;;7.37;2.70;;;;;;;;;;4994247;28;20499;-67
2022/08/02 03:36:32;;;;;;;2.67;2.47;;;;;;;;;;4993973;28;20418;-68
2022/08/02 03:38:59;;;;;;;2.40;2.00;;;;;;;;;;4994114;28;20500;-67
2022/08/02 03:41:25;;;;;;;3.33;3.03;;;;;;;;;;4994197;28;20410;-68
2022/08/02 03:43:52;;;;;;;2.40;2.23;;;;;;;;;;4993989;28;20772;-68
2022/08/02 03:46:19;;;;;;;2.67;2.47;;;;;;;;;;4993633;28;20475;-68
2022/08/02 03:48:47;;;;;;;4.00;2.43;;;;;;;;;;4993984;28;20494;-68
2022/08/02 03:51:13;;;;;;;5.70;2.90;;;;;;;;;;4993981;28;20422;-68
2022/08/02 03:53:39;;;;;;;3.13;2.40;;;;;;;;;;4994015;28;20405;-68
2022/08/02 03:56:06;;;;;;;2.53;2.43;;;;;;;;;;4993974;28;20424;-69
2022/08/02 03:58:32;;;;;;;11.90;5.50;;;;;;;;;;4993881;28;20746;-68
2022/08/02 04:00:58;;;;;;;3.73;3.63;;;;;;;;;;4993380;28;20567;-69
2022/08/02 04:03:25;;;;;;;5.00;4.70;;;;;;;;;;4993953;28;20793;-68
2022/08/02 04:05:51;;;;;;;4.13;3.80;;;;;;;;;;4993713;28;20614;-67
2022/08/02 04:08:17;;;;;;;7.47;3.40;;;;;;;;;;4993845;28;20767;-67
2022/08/02 04:13:32;;;;;;;3.23;3.03;;;;;;;;;;4994027;28;20397;-68
2022/08/02 04:16:12;;;;;;;2.90;2.70;;;;;;;;;;4993673;28;20422;-65
2022/08/02 04:18:58;;;;;;;3.90;2.50;;;;;;;;;;4993686;28;20883;-66
2022/08/02 04:21:26;;;;;;;4.50;3.33;;;;;;;;;;4975865;28;20952;-66
2022/08/02 04:23:52;;;;;;;3.17;2.77;;;;;;;;;;4976439;28;20485;-66
2022/08/02 04:26:18;;;;;;;42.07;12.20;;;;;;;;;;4993444;28;20462;-66
2022/08/02 04:28:45;;;;;;;3.40;3.30;;;;;;;;;;4993454;28;20415;-66
2022/08/02 04:31:11;;;;;;;12.13;4.53;;;;;;;;;;4993512;28;20425;-66
2022/08/02 04:33:37;;;;;;;50.50;12.23;;;;;;;;;;4976034;28;20422;-66
2022/08/02 04:36:05;;;;;;;8.03;3.50;;;;;;;;;;4975915;28;20843;-67
2022/08/02 04:38:31;;;;;;;3.43;3.17;;;;;;;;;;4993334;28;20452;-66
2022/08/02 04:40:57;;;;;;;6.77;3.30;;;;;;;;;;4993864;28;20426;-67
2022/08/02 04:43:23;;;;;;;4.57;2.83;;;;;;;;;;4993455;28;20419;-66
2022/08/02 04:45:51;;;;;;;3.43;3.30;;;;;;;;;;4993245;28;20473;-66
2022/08/02 04:48:17;;;;;;;2.90;2.80;;;;;;;;;;4995120;28;20521;-67
2022/08/02 04:50:43;;;;;;;7.50;2.80;;;;;;;;;;4997286;28;20433;-66
2022/08/02 04:53:09;;;;;;;4.50;3.17;;;;;;;;;;4995819;28;20805;-66
2022/08/02 04:55:35;;;;;;;3.50;3.20;;;;;;;;;;4997176;28;20423;-66
2022/08/02 04:58:01;;;;;;;2.80;2.60;;;;;;;;;;4996716;28;20758;-66
2022/08/02 05:00:28;;;;;;;5.00;3.40;;;;;;;;;;4995300;28;20828;-66
2022/08/02 05:02:55;;;;;;;4.33;2.97;;;;;;;;;;4995850;28;20410;-65
2022/08/02 05:05:21;;;;;;;5.20;3.70;;;;;;;;;;4995437;28;20461;-65
2022/08/02 05:07:47;;;;;;;7.17;3.13;;;;;;;;;;4995140;28;20418;-67
2022/08/02 05:10:14;;;;;;;3.50;3.20;;;;;;;;;;4977952;28;20415;-67
2022/08/02 05:12:40;;;;;;;10.33;3.30;;;;;;;;;;4995754;28;20522;-67
2022/08/02 05:15:06;;;;;;;2.90;2.73;;;;;;;;;;4995044;28;20415;-67
2022/08/02 05:17:32;;;;;;;2.57;2.37;;;;;;;;;;4995100;28;20455;-67
2022/08/02 05:19:58;;;;;;;3.40;3.30;;;;;;;;;;4995314;28;20450;-68
2022/08/02 05:22:24;;;;;;;3.70;3.50;;;;;;;;;;4995462;28;20955;-67
2022/08/02 05:24:50;;;;;;;3.00;2.80;;;;;;;;;;4995342;28;20467;-66
2022/08/02 05:27:16;;;;;;;3.30;3.07;;;;;;;;;;4995205;28;20414;-66
2022/08/02 05:29:42;;;;;;;4.17;3.20;;;;;;;;;;4994023;28;20822;-66
2022/08/02 05:32:08;;;;;;;3.57;3.47;;;;;;;;;;4993074;28;20840;-68
2022/08/02 05:34:34;;;;;;;2.97;2.87;;;;;;;;;;4992667;28;20585;-67
2022/08/02 05:37:00;;;;;;;2.73;2.53;;;;;;;;;;4994718;28;20517;-67
2022/08/02 05:39:26;;;;;;;3.13;3.03;;;;;;;;;;4995182;28;20903;-66
2022/08/02 05:41:52;;;;;;;3.70;3.50;;;;;;;;;;5285356;23;1141927;-67
2022/08/02 05:44:18;;;;;;;3.53;3.27;;;;;;;;;;5015637;28;20534;-72
2022/08/02 05:46:44;;;;;;;6.00;3.60;;;;;;;;;;5015784;28;20412;-73
2022/08/02 05:49:10;;;;;;;3.53;3.23;;;;;;;;;;5015795;28;20881;-69
2022/08/02 05:51:42;;;;;;;3.10;3.00;;;;;;;;;;5010674;28;20495;-66
2022/08/02 05:54:08;;;;;;;4.30;3.40;;;;;;;;;;5011358;28;20416;-72
2022/08/02 05:56:38;;;;;;;3.00;2.87;;;;;;;;;;5015418;28;20405;-66
2022/08/02 05:59:04;;;;;;;3.50;3.23;;;;;;;;;;5015460;28;20419;-69
2022/08/02 06:01:41;;;;;;;3.43;3.40;;;;;;;;;;5015426;28;20412;-67
2022/08/02 06:04:08;;;;;;;3.13;3.13;;;;;;;;;;5015429;28;20410;-68
2022/08/02 06:06:35;;;;;;;4.40;3.53;;;;;;;;;;5015399;28;20420;-71
2022/08/02 06:09:02;;;;;;;2.80;2.70;;;;;;;;;;5014871;28;20459;-69
2022/08/02 06:11:37;;;;;;;5.03;4.10;;;;;;;;;;5015442;28;20442;-71
2022/08/02 06:14:06;;;;;;;3.50;3.27;;;;;;;;;;4997065;28;20447;-74
2022/08/02 06:16:32;;;;;;;12.90;2.40;;;;;;;;;;5010850;28;20533;-72
2022/08/02 06:18:59;;;;;;;3.40;3.23;;;;;;;;;;5016772;28;21002;-70
2022/08/02 06:21:26;;;;;;;3.53;3.43;;;;;;;;;;5004425;28;20401;-69
2022/08/02 06:23:52;;;;;;;3.20;2.83;;;;;;;;;;5015164;28;20808;-72
2022/08/02 06:26:18;;;;;;;3.40;3.10;;;;;;;;;;5014706;28;20481;-70
2022/08/02 06:28:45;;;;;;;3.10;3.00;;;;;;;;;;5014123;28;20446;-73
2022/08/02 06:31:12;;;;;;;3.33;3.10;;;;;;;;;;4997902;28;20452;-78
2022/08/02 06:33:39;;;;;;;4.40;3.13;;;;;;;;;;4993549;28;20443;-72
2022/08/02 06:36:09;;;;;;;4.10;3.80;;;;;;;;;;5011742;28;20464;-74
2022/08/02 06:38:41;;;;;;;7.40;3.50;;;;;;;;;;5013947;28;20444;-74
2022/08/02 06:41:12;;;;;;;3.90;3.70;;;;;;;;;;5011066;28;20942;-76
2022/08/02 06:43:41;;;;;;;4.00;3.60;;;;;;;;;;4992872;28;20479;-76
2022/08/02 06:46:07;;;;;;;20.97;3.90;;;;;;;;;;5014802;28;20510;-74
2022/08/02 06:48:34;;;;;;;3.83;3.53;;;;;;;;;;5014956;28;20412;-73
2022/08/02 06:51:01;;;;;;;4.07;3.77;;;;;;;;;;5014825;28;20417;-76
2022/08/02 06:53:27;;;;;;;9.43;4.33;;;;;;;;;;5014786;28;20412;-75
2022/08/02 06:55:53;;;;;;;3.43;3.33;;;;;;;;;;5014760;28;20979;-72
2022/08/02 06:58:19;;;;;;;3.93;3.73;;;;;;;;;;5014734;28;20746;-74
2022/08/02 07:00:45;;;;;;;4.03;3.17;;;;;;;;;;5014687;28;20443;-72
2022/08/02 07:03:11;;;;;;;12.43;3.63;;;;;;;;;;5014700;28;20540;-77
2022/08/02 07:05:37;;;;;;;3.07;2.87;;;;;;;;;;5014553;28;20465;-76
2022/08/02 07:08:03;;;;;;;3.50;3.00;;;;;;;;;;5014636;28;20545;-77
2022/08/02 07:10:29;;;;;;;7.43;3.60;;;;;;;;;;5014104;28;20464;-76
2022/08/02 07:12:55;;;;;;;3.40;3.03;;;;;;;;;;5014557;28;20416;-77
2022/08/02 07:15:21;;;;;;;4.87;3.00;;;;;;;;;;5014520;28;20444;-77
2022/08/02 07:17:47;;;;;;;8.70;3.40;;;;;;;;;;5014510;28;20436;-76
2022/08/02 07:20:13;;;;;;;3.30;3.20;;;;;;;;;;5014643;28;20405;-74
2022/08/02 07:22:40;;;;;;;8.83;3.20;;;;;;;;;;5014482;28;20394;-75
2022/08/02 07:25:06;;;;;;;3.03;2.83;;;;;;;;;;5014308;28;20511;-74
2022/08/02 07:27:32;;;;;;;2.33;2.33;;;;;;;;;;5014390;28;20427;-75
2022/08/02 07:29:58;;;;;;;3.10;3.00;;;;;;;;;;4996603;28;20433;-74
2022/08/02 07:32:27;;;;;;;3.03;2.90;;;;;;;;;;5014335;28;20425;-75
2022/08/02 07:34:53;;;;;;;3.60;3.40;;;;;;;;;;5014289;28;20454;-74
2022/08/02 07:37:21;;;;;;;7.07;2.60;;;;;;;;;;5014461;28;20415;-77
2022/08/02 07:39:47;;;;;;;5.23;3.07;;;;;;;;;;5014244;28;20407;-75
2022/08/02 07:42:13;;;;;;;3.37;3.20;;;;;;;;;;5014097;28;20983;-73
2022/08/02 07:44:39;;;;;;;3.20;2.80;;;;;;;;;;5014020;28;20565;-76
2022/08/02 07:47:05;;;;;;;3.97;3.03;;;;;;;;;;5014000;28;20422;-74
2022/08/02 07:49:31;;;;;;;3.00;2.90;;;;;;;;;;5014023;28;20475;-77
2022/08/02 07:51:57;;;;;;;2.37;2.37;;;;;;;;;;4996284;28;20430;-74
2022/08/02 07:54:23;;;;;;;2.70;2.60;;;;;;;;;;5014014;28;20464;-74
2022/08/02 07:56:49;;;;;;;4.30;2.60;;;;;;;;;;5013838;28;20428;-75
2022/08/02 07:59:15;;;;;;;3.30;2.80;;;;;;;;;;5013803;28;20470;-74
2022/08/02 08:01:41;;;;;;;2.53;2.43;;;;;;;;;;5013847;28;20418;-74
2022/08/02 08:04:07;;;;;;;3.53;3.23;;;;;;;;;;5013980;28;20768;-75
2022/08/02 08:06:34;;;;;;;2.60;2.50;;;;;;;;;;5013676;28;20474;-74
2022/08/02 08:09:00;;;;;;;2.60;2.50;;;;;;;;;;5013739;28;20830;-76
2022/08/02 08:11:26;;;;;;;2.93;2.77;;;;;;;;;;5013808;28;20433;-74
2022/08/02 08:13:52;;;;;;;5.00;2.23;;;;;;;;;;5013687;28;20498;-75
2022/08/02 08:16:18;;;;;;;2.17;2.07;;;;;;;;;;5013777;28;20456;-75
2022/08/02 08:18:44;;;;;;;1.83;1.83;;;;;;;;;;5013632;28;20958;-70
2022/08/02 08:21:10;;;;;;;2.10;2.00;;;;;;;;;;5013574;28;20435;-77
2022/08/02 08:23:36;;;;;;;3.83;2.40;;;;;;;;;;5015828;28;20906;-74
2022/08/02 08:26:02;;;;;;;2.03;1.93;;;;;;;;;;5017547;28;20569;-75
2022/08/02 08:28:28;;;;;;;9.83;2.47;;;;;;;;;;5017716;28;20881;-75
2022/08/02 08:30:54;;;;;;;2.17;2.17;;;;;;;;;;5017813;28;20419;-75
2022/08/02 08:33:20;;;;;;;2.77;2.60;;;;;;;;;;5017691;28;20578;-77
2022/08/02 08:35:46;;;;;;;2.83;1.90;;;;;;;;;;5017513;28;20891;-77
2022/08/02 08:38:14;;;;;;;2.50;2.40;;;;;;;;;;5017439;28;20430;-77
2022/08/02 08:40:41;;;;;;;2.23;2.17;;;;;;;;;;5017306;28;20410;-76
2022/08/02 08:43:07;;;;;;;2.40;2.40;;;;;;;;;;5017048;28;20560;-77
2022/08/02 08:45:33;;;;;;;2.30;2.20;;;;;;;;;;5017103;28;20830;-77
2022/08/02 08:48:14;;;;;;;2.70;2.70;;;;;;;;;;5017158;28;20407;-74
2022/08/02 08:50:50;;;;;;;2.67;2.30;;;;;;;;;;5017239;28;20395;-70
2022/08/02 08:53:17;;;;;;;2.30;2.30;;;;;;;;;;5017201;28;20407;-76
2022/08/02 08:55:43;;;;;;;2.03;1.93;;;;;;;;;;5017096;28;20410;-75
2022/08/02 08:58:11;;;;;;;2.23;2.03;;;;;;;;;;5017272;28;20410;-71
2022/08/02 09:00:37;;;;;;;2.60;2.17;;;;;;;;;;5017065;28;20417;-72
2022/08/02 09:03:03;;;;;;;2.40;2.30;;;;;;;;;;4999391;28;20424;-70
2022/08/02 09:05:29;;;;;;;2.63;2.43;;;;;;;;;;5016885;28;20473;-73
2022/08/02 09:07:55;;;;;;;2.43;2.40;;;;;;;;;;4999333;28;20572;-74
2022/08/02 09:10:31;;;;;;;3.43;2.20;;;;;;;;;;5016815;28;20424;-73
2022/08/02 09:13:16;;;;;;;5.20;2.10;;;;;;;;;;5016745;28;20922;-73
2022/08/02 09:15:43;;;;;;;2.10;1.97;;;;;;;;;;5016721;28;20399;-72
2022/08/02 09:18:09;;;;;;;1.90;1.90;;;;;;;;;;4999200;28;20428;-73
2022/08/02 09:20:50;;;;;;;1.90;1.80;;;;;;;;;;5016727;28;20416;-73
2022/08/02 09:23:17;;;;;;;1.93;1.93;;;;;;;;;;5016639;28;20452;-72
2022/08/02 09:25:54;;;;;;;2.13;1.60;;;;;;;;;;4998917;28;20604;-73
2022/08/02 09:28:20;;;;;;;1.70;1.70;;;;;;;;;;4998854;28;20411;-71
2022/08/02 09:30:46;;;;;;;1.90;1.80;;;;;;;;;;5016392;28;20415;-70
2022/08/02 09:33:12;;;;;;;6.80;1.40;;;;;;;;;;5016069;28;20405;-70
2022/08/02 09:35:39;;;;;;;1.83;1.83;;;;;;;;;;4998636;28;20442;-71
2022/08/02 09:38:12;;;;;;;2.30;1.83;;;;;;;;;;5016223;28;20401;-73
2022/08/02 09:40:39;;;;;;;3.80;1.90;;;;;;;;;;5016265;28;20422;-73
2022/08/02 09:43:05;;;;;;;2.20;2.00;;;;;;;;;;5016516;28;20494;-75
2022/08/02 09:45:33;;;;;;;1.50;1.50;;;;;;;;;;5016188;28;20467;-74
2022/08/02 09:47:59;;;;;;;6.23;1.60;;;;;;;;;;5016183;28;20401;-72
2022/08/02 09:50:26;;;;;;;1.73;1.73;;;;;;;;;;5016075;28;20416;-77
2022/08/02 09:52:54;;;;;;;1.67;1.60;;;;;;;;;;5016206;28;20411;-71
2022/08/02 09:55:20;;;;;;;1.50;1.50;;;;;;;;;;5015955;28;20408;-73
2022/08/02 09:57:46;;;;;;;2.60;1.93;;;;;;;;;;5015976;28;20426;-71
2022/08/02 10:00:12;;;;;;;1.80;1.70;;;;;;;;;;5015867;28;20409;-71
2022/08/02 10:02:38;;;;;;;2.20;2.00;;;;;;;;;;5015738;28;20443;-69
2022/08/02 10:05:05;;;;;;;3.17;1.80;;;;;;;;;;5015633;28;20959;-70
2022/08/02 10:07:31;;;;;;;2.00;1.90;;;;;;;;;;5015640;28;20562;-69
2022/08/02 10:09:57;;;;;;;2.23;2.13;;;;;;;;;;5015521;28;20812;-70
2022/08/02 10:12:23;;;;;;;3.03;1.70;;;;;;;;;;4997795;28;20423;-73
2022/08/02 10:14:50;;;;;;;2.10;1.67;;;;;;;;;;5015458;28;20910;-71
2022/08/02 10:17:17;;;;;;;2.30;1.70;;;;;;;;;;5015652;28;20913;-74
2022/08/02 10:19:46;;;;;;;6.70;1.80;;;;;;;;;;4997884;28;20432;-72
2022/08/02 10:22:13;;;;;;;1.70;1.70;;;;;;;;;;5015778;28;20805;-71
2022/08/02 10:24:40;;;;;;;2.20;2.07;;;;;;;;;;5015267;28;20468;-73
2022/08/02 10:27:07;;;;;;;1.97;1.97;;;;;;;;;;5015321;28;20426;-70
2022/08/02 10:29:37;;;;;;;2.50;2.43;;;;;;;;;;5015209;28;20411;-70
2022/08/02 10:32:06;;;;;;;1.97;1.87;;;;;;;;;;5015202;28;20509;-74
2022/08/02 10:34:46;;;;;;;2.83;2.27;;;;;;;;;;5015149;28;20447;-74
2022/08/02 10:37:12;;;;;;;3.53;1.83;;;;;;;;;;5015048;28;20461;-74
2022/08/02 10:39:39;;;;;;;1.90;1.90;;;;;;;;;;5015032;28;20415;-71
2022/08/02 10:42:05;;;;;;;3.87;2.03;;;;;;;;;;4997252;28;20490;-74
2022/08/02 10:44:32;;;;;;;2.00;2.00;;;;;;;;;;5014879;28;20864;-71
2022/08/02 10:47:15;;;;;;;2.30;1.80;;;;;;;;;;5014358;28;20434;-70
2022/08/02 10:49:52;;;;;;;2.17;2.03;;;;;;;;;;4997370;28;20427;-76
2022/08/02 10:52:19;;;;;;;2.00;2.00;;;;;;;;;;5014774;28;20440;-74
2022/08/02 10:54:55;;;;;;;1.90;1.90;;;;;;;;;;4997243;28;20482;-68
2022/08/02 10:57:22;;;;;;;4.30;1.80;;;;;;;;;;5014764;28;20497;-69
2022/08/02 10:59:49;;;;;;;2.73;1.77;;;;;;;;;;5014693;28;20460;-69
2022/08/02 11:02:32;;;;;;;1.70;1.60;;;;;;;;;;5014651;28;21011;-71
2022/08/02 11:05:03;;;;;;;4.93;2.10;;;;;;;;;;5014602;28;20468;-70
2022/08/02 11:07:35;;;;;;;2.80;1.97;;;;;;;;;;5014672;28;20439;-74
2022/08/02 11:10:21;;;;;;;2.00;1.67;;;;;;;;;;5014628;28;20420;-68
2022/08/02 11:13:04;;;;;;;3.80;1.70;;;;;;;;;;5014205;28;20420;-72
2022/08/02 11:15:30;;;;;;;2.07;1.97;;;;;;;;;;5014507;28;20413;-73
2022/08/02 11:17:58;;;;;;;1.67;1.67;;;;;;;;;;5014488;28;20393;-75
2022/08/02 11:20:25;;;;;;;3.20;1.70;;;;;;;;;;5014399;28;20412;-70
2022/08/02 11:22:51;;;;;;;1.87;1.60;;;;;;;;;;5014480;28;20401;-69
2022/08/02 11:25:23;;;;;;;1.40;1.40;;;;;;;;;;5014283;28;20546;-72
2022/08/02 11:27:57;;;;;;;2.60;2.43;;;;;;;;;;5014213;28;20439;-71
2022/08/02 11:30:23;;;;;;;2.00;1.90;;;;;;;;;;5014247;28;20413;-68
2022/08/02 11:32:50;;;;;;;9.93;1.97;;;;;;;;;;5014219;28;20413;-72
2022/08/02 11:35:16;;;;;;;1.77;1.67;;;;;;;;;;5014400;28;20879;-70
2022/08/02 11:37:44;;;;;;;1.67;1.60;;;;;;;;;;5014123;28;20523;-69
2022/08/02 11:40:12;;;;;;;1.40;1.40;;;;;;;;;;4996505;28;20896;-71
2022/08/02 11:42:39;;;;;;;5.20;1.67;;;;;;;;;;5013899;28;20495;-69
2022/08/02 11:45:06;;;;;;;3.30;1.50;;;;;;;;;;5013944;28;20543;-71
2022/08/02 11:47:32;;;;;;;4.47;1.70;;;;;;;;;;4996285;28;20820;-68
2022/08/02 11:50:06;;;;;;;2.00;1.70;;;;;;;;;;5013948;28;20490;-75
2022/08/02 11:52:33;;;;;;;4.53;1.90;;;;;;;;;;5013938;28;20504;-71
2022/08/02 11:54:59;;;;;;;2.20;1.87;;;;;;;;;;5013885;28;20500;-70
2022/08/02 11:57:25;;;;;;;2.00;1.43;;;;;;;;;;5013644;28;20452;-70
2022/08/02 11:59:52;;;;;;;7.30;2.03;;;;;;;;;;5013771;28;20508;-69
2022/08/02 12:02:19;;;;;;;1.73;1.67;;;;;;;;;;5013923;28;20508;-69
2022/08/02 12:04:53;;;;;;;2.60;1.53;;;;;;;;;;5013764;28;20551;-68
2022/08/02 12:07:24;;;;;;;2.10;1.67;;;;;;;;;;4996522;28;20406;-69
2022/08/02 12:09:50;;;;;;;2.10;2.00;;;;;;;;;;5013700;28;20408;-69
2022/08/02 12:12:16;;;;;;;1.30;1.30;;;;;;;;;;4996000;28;20432;-69
2022/08/02 12:14:43;;;;;;;1.70;1.60;;;;;;;;;;5013647;28;20411;-72
2022/08/02 12:19:53;;;;;;;1.13;1.13;;;;;;;;;;5013782;28;20407;-76
2022/08/02 12:22:23;;;;;;;4.43;1.40;;;;;;;;;;5013593;28;20499;-76
2022/08/02 12:24:51;;;;;;;1.20;1.20;;;;;;;;;;5013398;28;20548;-77
2022/08/02 12:27:35;;;;;;;1.60;1.60;;;;;;;;;;5013412;28;20481;-76
2022/08/02 12:30:04;;;;;;;1.83;1.73;;;;;;;;;;5013503;28;20428;-77
2022/08/02 12:32:30;;;;;;;1.10;1.10;;;;;;;;;;5013416;28;20448;-74
2022/08/02 12:35:07;;;;;;;1.70;1.70;;;;;;;;;;5013394;28;20451;-74
2022/08/02 12:37:33;;;;;;;3.27;1.20;;;;;;;;;;4995740;28;20424;-75
2022/08/02 12:40:16;;;;;;;1.60;1.60;;;;;;;;;;5013265;28;20412;-75
2022/08/02 12:42:46;;;;;;;1.20;1.20;;;;;;;;;;5013086;28;20901;-76
2022/08/02 12:45:12;;;;;;;1.27;1.17;;;;;;;;;;5013246;28;20467;-74
2022/08/02 12:47:49;;;;;;;1.10;1.10;;;;;;;;;;5013396;28;20417;-75
2022/08/02 12:50:20;;;;;;;1.93;1.27;;;;;;;;;;5013346;28;20838;-77
2022/08/02 12:52:47;;;;;;;3.90;1.10;;;;;;;;;;4995642;28;20460;-75
2022/08/02 12:55:18;;;;;;;1.00;1.00;;;;;;;;;;4995751;28;20417;-76
2022/08/02 12:57:54;;;;;;;1.03;1.03;;;;;;;;;;5013250;28;20425;-74
2022/08/02 13:00:39;;;;;;;1.33;1.00;;;;;;;;;;5013169;28;20774;-77
2022/08/02 13:03:06;;;;;;;1.73;1.13;;;;;;;;;;5013163;28;20405;-74
2022/08/02 13:05:34;;;;;;;3.33;1.10;;;;;;;;;;5013039;28;21018;-77
2022/08/02 13:08:00;;;;;;;1.00;0.97;;;;;;;;;;5013038;28;20413;-73
2022/08/02 13:10:26;;;;;;;2.50;1.10;;;;;;;;;;5016406;28;20404;-72
2022/08/02 13:12:53;;;;;;;0.80;0.80;;;;;;;;;;4999138;28;20425;-76
2022/08/02 13:15:19;;;;;;;1.00;1.00;;;;;;;;;;5016731;28;20404;-69
2022/08/02 13:17:45;;;;;;;1.07;0.97;;;;;;;;;;5016580;28;20425;-69
2022/08/02 13:20:13;;;;;;;2.63;1.03;;;;;;;;;;5016465;28;20415;-70
2022/08/02 13:22:40;;;;;;;2.93;1.00;;;;;;;;;;5016470;28;20404;-72
2022/08/02 13:25:06;;;;;;;1.03;1.03;;;;;;;;;;5016395;28;20468;-71
2022/08/02 13:27:32;;;;;;;1.13;1.13;;;;;;;;;;5016508;28;20997;-71
2022/08/02 13:29:59;;;;;;;0.90;0.90;;;;;;;;;;5016478;28;20472;-75
2022/08/02 13:32:27;;;;;;;0.70;0.70;;;;;;;;;;5016370;28;20413;-71
2022/08/02 13:34:54;;;;;;;0.70;0.70;;;;;;;;;;5016667;28;20488;-70
2022/08/02 13:37:20;;;;;;;0.70;0.70;;;;;;;;;;5016315;28;20409;-75
2022/08/02 13:39:47;;;;;;;0.50;0.50;;;;;;;;;;4998640;28;20421;-73
2022/08/02 13:42:13;;;;;;;0.60;0.60;;;;;;;;;;5016047;28;20495;-73
2022/08/02 13:44:38;;;;;;;0.80;0.80;;;;;;;;;;5016042;28;20413;-71
2022/08/02 13:47:05;;;;;;;4.97;1.20;;;;;;;;;;5015980;28;20413;-73
2022/08/02 13:49:31;;;;;;;4.50;1.00;;;;;;;;;;5015927;28;20766;-73
2022/08/02 13:51:57;;;;;;;0.83;0.60;;;;;;;;;;5015931;28;20420;-77
2022/08/02 13:54:23;;;;;;;0.60;0.60;;;;;;;;;;5016015;28;20405;-70
2022/08/02 13:56:49;;;;;;;0.60;0.60;;;;;;;;;;5015905;28;20436;-69
2022/08/02 13:59:15;;;;;;;2.23;1.03;;;;;;;;;;5015909;28;20181;-70
2022/08/02 14:01:41;;;;;;;0.50;0.50;;;;;;;;;;5015824;28;20421;-69
2022/08/02 14:04:07;;;;;;;0.80;0.80;;;;;;;;;;5015803;28;20413;-69
2022/08/02 14:06:33;;;;;;;0.80;0.80;;;;;;;;;;5015689;28;20478;-69
2022/08/02 14:08:59;;;;;;;1.90;0.83;;;;;;;;;;5015655;28;20405;-69
2022/08/02 14:11:25;;;;;;;0.80;0.80;;;;;;;;;;4998044;28;20186;-69
2022/08/02 14:13:51;;;;;;;0.80;0.80;;;;;;;;;;5015541;28;20495;-70
2022/08/02 14:16:17;;;;;;;0.70;0.70;;;;;;;;;;5015560;28;20412;-71
2022/08/02 14:18:42;;;;;;;1.83;0.70;;;;;;;;;;5015425;28;20983;-72
2022/08/02 14:21:08;;;;;;;0.70;0.70;;;;;;;;;;5014094;28;20413;-73
2022/08/02 14:23:34;;;;;;;1.37;0.80;;;;;;;;;;5015299;28;20416;-74
2022/08/02 14:26:03;;;;;;;0.77;0.77;;;;;;;;;;5015152;28;20468;-73
2022/08/02 14:28:29;;;;;;;1.27;0.70;;;;;;;;;;5015170;28;20477;-76
2022/08/02 14:30:55;;;;;;;0.73;0.73;;;;;;;;;;5015025;28;20974;-73
2022/08/02 14:33:22;;;;;;;0.63;0.63;;;;;;;;;;5015028;28;20405;-72
2022/08/02 14:35:48;;;;;;;0.87;0.87;;;;;;;;;;5015056;28;20416;-72
2022/08/02 14:38:16;;;;;;;0.87;0.87;;;;;;;;;;5014989;28;20405;-70
2022/08/02 14:40:42;;;;;;;0.73;0.73;;;;;;;;;;5015151;28;20828;-70
2022/08/02 14:43:08;;;;;;;0.70;0.70;;;;;;;;;;5014705;28;20555;-70
2022/08/02 14:45:34;;;;;;;0.80;0.80;;;;;;;;;;5014795;28;20963;-70
2022/08/02 14:48:00;;;;;;;0.93;0.93;;;;;;;;;;5014756;28;20397;-69
2022/08/02 14:50:26;;;;;;;0.70;0.70;;;;;;;;;;5014798;28;20401;-69
2022/08/02 14:52:52;;;;;;;0.80;0.80;;;;;;;;;;5014687;28;20757;-69